Time;durP1;ratioP1;P1;durP2;ratioP2;P2;SDS_P1;SDS_P2;PMS_P1;PMS_P2;Temp;Humidity;BMP_temperature;BMP_pressure;BME280_temperature;BME280_humidity;BME280_pressure;Samples;Min_cycle;Max_cycle;Signal;HPM_P1;HPM_P2
2024/01/09 00:01:29;;;;;;;13.40;8.00;;;-6.70;99.90;;;;;;4938650;29;20209;-74
2024/01/09 00:03:55;;;;;;;12.47;7.30;;;-6.80;99.90;;;;;;4939924;29;20178;-74
2024/01/09 00:06:21;;;;;;;12.70;7.60;;;-6.70;99.90;;;;;;4938568;29;20205;-74
2024/01/09 00:12:09;;;;;;;13.53;7.90;;;-6.80;99.90;;;;;;4939782;29;20192;-74
2024/01/09 00:14:34;;;;;;;12.30;7.40;;;-6.80;99.90;;;;;;4938509;29;20186;-74
2024/01/09 00:17:00;;;;;;;11.43;7.57;;;-6.80;99.90;;;;;;4938544;29;20194;-74
2024/01/09 00:19:25;;;;;;;11.57;7.80;;;-6.70;99.90;;;;;;4938428;29;20186;-74
2024/01/09 00:21:52;;;;;;;12.43;7.97;;;-6.60;99.90;;;;;;4938326;29;20210;-74
2024/01/09 00:24:18;;;;;;;12.37;7.40;;;-6.60;99.90;;;;;;4938719;29;20186;-74
2024/01/09 00:26:44;;;;;;;10.77;7.17;;;-6.60;99.90;;;;;;4939986;29;20211;-74
2024/01/09 00:29:10;;;;;;;11.07;7.43;;;-6.60;99.90;;;;;;4938255;29;20178;-74
2024/01/09 00:31:35;;;;;;;11.73;7.40;;;-6.60;99.90;;;;;;4938187;29;20194;-76
2024/01/09 00:34:01;;;;;;;11.40;6.93;;;-6.60;99.90;;;;;;4941223;29;20177;-76
2024/01/09 00:36:27;;;;;;;12.40;7.43;;;-6.50;99.90;;;;;;4940737;29;20236;-76
2024/01/09 00:39:09;;;;;;;10.50;6.63;;;-6.50;99.90;;;;;;4941257;29;20225;-76
2024/01/09 00:41:34;;;;;;;11.50;7.23;;;-6.60;99.90;;;;;;4942464;29;20274;-76
2024/01/09 00:44:00;;;;;;;13.27;8.50;;;-6.60;99.90;;;;;;4940444;29;20212;-76
2024/01/09 00:46:29;;;;;;;14.00;8.70;;;-6.60;99.90;;;;;;4940733;29;20206;-76
2024/01/09 00:48:54;;;;;;;12.37;8.23;;;-6.70;99.90;;;;;;4941920;29;20179;-77
2024/01/09 00:51:20;;;;;;;13.63;8.63;;;-6.80;99.90;;;;;;4940768;29;20189;-77
2024/01/09 00:53:45;;;;;;;11.73;7.97;;;-6.80;99.90;;;;;;4942065;29;20241;-76
2024/01/09 00:56:11;;;;;;;11.03;7.73;;;-6.90;99.90;;;;;;4940348;29;20210;-76
2024/01/09 00:58:37;;;;;;;11.67;7.93;;;-6.90;99.90;;;;;;4939031;29;20280;-75
2024/01/09 01:01:03;;;;;;;15.23;8.77;;;-7.00;99.90;;;;;;4939044;29;20198;-74
2024/01/09 01:03:29;;;;;;;13.40;8.27;;;-7.00;99.90;;;;;;4938810;29;20186;-74
2024/01/09 01:05:55;;;;;;;13.13;8.00;;;-7.00;99.90;;;;;;4938730;29;20184;-74
2024/01/09 01:08:21;;;;;;;13.13;7.93;;;-7.00;99.90;;;;;;4937856;29;20190;-74
2024/01/09 01:10:47;;;;;;;13.83;8.67;;;-7.00;99.90;;;;;;4937510;29;20182;-74
2024/01/09 01:13:12;;;;;;;12.10;8.00;;;-7.00;99.90;;;;;;4937414;29;20186;-74
2024/01/09 01:15:38;;;;;;;14.40;7.80;;;-7.00;99.90;;;;;;4937400;29;20266;-74
2024/01/09 01:18:04;;;;;;;12.73;8.10;;;-7.00;99.90;;;;;;4937051;29;20206;-75
2024/01/09 01:20:29;;;;;;;12.50;7.97;;;-7.10;99.90;;;;;;4937246;29;20190;-74
2024/01/09 01:22:55;;;;;;;12.27;7.73;;;-7.10;99.90;;;;;;4938502;29;20219;-74
2024/01/09 01:25:21;;;;;;;11.53;7.30;;;-7.10;99.90;;;;;;4937541;29;20182;-74
2024/01/09 01:27:47;;;;;;;13.90;7.80;;;-7.10;99.90;;;;;;4937181;29;20206;-74
2024/01/09 01:30:12;;;;;;;13.90;7.93;;;-7.20;99.90;;;;;;4937178;29;20183;-74
2024/01/09 01:32:38;;;;;;;11.67;7.60;;;-7.20;99.90;;;;;;4938259;29;20326;-74
2024/01/09 01:35:04;;;;;;;11.73;7.10;;;-7.20;99.90;;;;;;4937905;29;20233;-74
2024/01/09 01:37:30;;;;;;;11.93;7.27;;;-7.20;99.90;;;;;;4937263;29;20221;-74
2024/01/09 01:39:56;;;;;;;10.77;7.27;;;-7.20;99.90;;;;;;4938214;29;20205;-74
2024/01/09 01:42:21;;;;;;;8.53;5.63;;;-7.20;99.90;;;;;;4937136;29;20213;-74
2024/01/09 01:44:47;;;;;;;10.07;6.57;;;-7.20;99.90;;;;;;4938132;29;20178;-74
2024/01/09 01:47:13;;;;;;;10.87;7.17;;;-7.10;99.90;;;;;;4936812;29;20241;-74
2024/01/09 01:49:39;;;;;;;11.23;7.40;;;-7.10;99.90;;;;;;4936779;29;20186;-74
2024/01/09 01:52:05;;;;;;;12.93;7.57;;;-7.10;99.90;;;;;;4936881;29;20186;-74
2024/01/09 01:54:34;;;;;;;12.30;8.07;;;-7.10;99.90;;;;;;4938129;29;20193;-74
2024/01/09 01:57:01;;;;;;;12.30;7.37;;;-7.10;99.90;;;;;;4936560;29;20194;-74
2024/01/09 01:59:28;;;;;;;12.40;7.60;;;-7.10;99.90;;;;;;4936653;29;20186;-74
2024/01/09 02:22:37;;;;;;;8.80;5.53;;;-7.00;99.90;;;;;;4917042;29;20257;-84
2024/01/09 02:25:04;;;;;;;10.17;5.80;;;-7.00;99.90;;;;;;4918974;29;20175;-85
2024/01/09 02:27:47;;;;;;;9.73;5.97;;;-7.00;99.90;;;;;;4917343;29;20230;-84
2024/01/09 02:30:12;;;;;;;9.90;5.97;;;-7.00;99.90;;;;;;4917361;29;20187;-84
2024/01/09 02:32:39;;;;;;;8.20;5.57;;;-7.00;99.90;;;;;;4917234;29;20192;-84
2024/01/09 02:35:05;;;;;;;7.70;5.27;;;-7.00;99.90;;;;;;4917151;29;20620;-84
2024/01/09 02:37:31;;;;;;;9.47;5.57;;;-6.90;99.90;;;;;;4932995;29;20210;-84
2024/01/09 02:40:03;;;;;;;9.77;6.23;;;-6.90;99.90;;;;;;4932945;29;20254;-85
2024/01/09 02:42:29;;;;;;;10.13;5.93;;;-6.80;99.90;;;;;;4918204;29;20233;-84
2024/01/09 02:44:55;;;;;;;8.60;5.80;;;-6.80;99.90;;;;;;4917130;29;20273;-84
2024/01/09 02:47:24;;;;;;;9.47;5.67;;;-6.80;99.90;;;;;;4932589;29;20300;-84
2024/01/09 02:49:49;;;;;;;10.00;5.80;;;-6.80;99.90;;;;;;4916973;29;20187;-84
2024/01/09 02:52:16;;;;;;;10.33;6.07;;;-6.80;99.90;;;;;;4917050;29;20194;-84
2024/01/09 02:54:41;;;;;;;8.57;5.67;;;-6.80;99.90;;;;;;4932638;29;20187;-84
2024/01/09 02:57:08;;;;;;;9.17;5.93;;;-6.80;99.90;;;;;;4916610;29;20214;-84
2024/01/09 02:59:35;;;;;;;9.03;5.83;;;-6.70;99.90;;;;;;4917691;29;20270;-84
2024/01/09 03:02:00;;;;;;;8.23;5.53;;;-6.70;99.90;;;;;;4917465;29;20309;-85
2024/01/09 03:04:26;;;;;;;8.93;6.03;;;-6.60;99.90;;;;;;4916747;29;20214;-85
2024/01/09 03:06:51;;;;;;;9.70;5.80;;;-6.60;99.90;;;;;;4916668;29;20206;-85
2024/01/09 03:09:17;;;;;;;10.10;6.37;;;-6.50;99.90;;;;;;4916779;29;20187;-84
2024/01/09 03:11:44;;;;;;;10.07;6.83;;;-6.40;99.90;;;;;;4917620;29;20214;-84
2024/01/09 03:14:09;;;;;;;9.17;6.00;;;-6.40;99.90;;;;;;4917894;29;20187;-84
2024/01/09 03:16:35;;;;;;;9.53;6.03;;;-6.40;99.90;;;;;;4916518;29;20221;-85
2024/01/09 03:19:00;;;;;;;10.73;6.07;;;-6.50;99.90;;;;;;4916957;29;20182;-84
2024/01/09 03:21:26;;;;;;;10.23;5.90;;;-6.50;99.90;;;;;;4916654;29;20218;-84
2024/01/09 03:23:54;;;;;;;9.10;6.30;;;-6.50;99.90;;;;;;4916736;29;20185;-84
2024/01/09 03:26:21;;;;;;;8.30;6.13;;;-6.50;99.90;;;;;;4915803;29;20666;-83
2024/01/09 03:28:47;;;;;;;11.60;5.97;;;-6.60;99.90;;;;;;4916794;29;20186;-84
2024/01/09 03:31:20;;;;;;;6.93;5.60;;;-6.60;99.90;;;;;;4917889;29;20179;-84
2024/01/09 03:33:46;;;;;;;11.40;6.53;;;-6.60;99.90;;;;;;4917555;29;20582;-84
2024/01/09 03:36:12;;;;;;;8.87;6.27;;;-6.60;99.90;;;;;;4916801;29;20194;-84
2024/01/09 03:38:39;;;;;;;9.77;6.57;;;-6.50;99.90;;;;;;4917569;29;20202;-84
2024/01/09 03:41:04;;;;;;;13.23;7.53;;;-6.60;99.90;;;;;;4932195;29;20222;-84
2024/01/09 03:43:30;;;;;;;11.80;6.50;;;-6.60;99.90;;;;;;4916233;29;20183;-84
2024/01/09 03:45:57;;;;;;;9.37;6.70;;;-6.50;99.90;;;;;;4916556;29;20182;-84
2024/01/09 03:48:22;;;;;;;10.63;7.07;;;-6.50;99.90;;;;;;4917473;29;20207;-84
2024/01/09 03:50:48;;;;;;;10.83;6.97;;;-6.50;99.90;;;;;;4916693;29;20194;-84
2024/01/09 03:53:14;;;;;;;13.17;7.90;;;-6.50;99.90;;;;;;4917590;29;20179;-84
2024/01/09 03:55:39;;;;;;;13.47;8.93;;;-6.50;99.90;;;;;;4916455;29;20191;-84
2024/01/09 03:58:05;;;;;;;12.13;8.00;;;-6.50;99.90;;;;;;4916363;29;20198;-84
2024/01/09 04:00:31;;;;;;;12.03;7.47;;;-6.50;99.90;;;;;;4916415;29;20178;-84
2024/01/09 04:02:56;;;;;;;13.20;6.70;;;-6.50;99.90;;;;;;4917252;29;20183;-84
2024/01/09 04:05:22;;;;;;;13.53;7.20;;;-6.50;99.90;;;;;;4916257;29;20640;-84
2024/01/09 04:07:47;;;;;;;12.33;7.50;;;-6.50;99.90;;;;;;4916052;29;20281;-84
2024/01/09 04:10:13;;;;;;;12.17;7.60;;;-6.50;99.90;;;;;;4916224;29;20186;-85
2024/01/09 04:12:39;;;;;;;11.87;7.90;;;-6.50;99.90;;;;;;4916133;29;20240;-86
2024/01/09 04:15:05;;;;;;;11.70;7.63;;;-6.60;99.90;;;;;;4916929;29;20698;-86
2024/01/09 04:17:31;;;;;;;11.43;6.63;;;-6.60;99.90;;;;;;4915927;29;20210;-86
2024/01/09 04:19:56;;;;;;;10.73;7.17;;;-6.50;99.90;;;;;;4916588;29;20190;-86
2024/01/09 04:22:22;;;;;;;10.23;7.13;;;-6.50;99.90;;;;;;4916649;29;20261;-86
2024/01/09 04:24:48;;;;;;;11.20;7.23;;;-6.50;99.90;;;;;;4916515;29;20214;-86
2024/01/09 04:27:13;;;;;;;11.50;6.33;;;-6.60;99.90;;;;;;4915816;29;20210;-86
2024/01/09 04:29:39;;;;;;;9.23;6.83;;;-6.60;99.90;;;;;;4916969;29;20179;-85
2024/01/09 04:32:04;;;;;;;13.53;7.20;;;-6.60;99.90;;;;;;4915987;29;20654;-85
2024/01/09 04:34:30;;;;;;;12.63;7.10;;;-6.60;99.90;;;;;;4915930;29;20191;-85
2024/01/09 04:36:55;;;;;;;11.90;6.90;;;-6.50;99.80;;;;;;4916941;29;20207;-85
2024/01/09 04:39:21;;;;;;;12.90;7.07;;;-6.60;99.80;;;;;;4920654;29;20186;-85
2024/01/09 04:41:47;;;;;;;13.67;7.50;;;-6.60;99.90;;;;;;4934948;29;20229;-85
2024/01/09 04:44:12;;;;;;;11.90;7.17;;;-6.60;99.90;;;;;;4919389;29;20179;-85
2024/01/09 04:46:38;;;;;;;13.20;7.97;;;-6.70;99.90;;;;;;4919932;29;20202;-85
2024/01/09 04:49:04;;;;;;;12.73;7.40;;;-6.70;99.90;;;;;;4920395;29;20179;-85
2024/01/09 04:51:31;;;;;;;20.87;8.83;;;-6.70;99.90;;;;;;4918881;29;20190;-85
2024/01/09 04:53:57;;;;;;;19.43;10.73;;;-6.70;99.90;;;;;;4918915;29;20208;-85
2024/01/09 04:56:22;;;;;;;12.17;7.37;;;-6.80;99.90;;;;;;4918781;29;20190;-85
2024/01/09 04:58:53;;;;;;;8.97;6.80;;;-6.80;99.90;;;;;;4919048;29;20187;-85
2024/01/09 05:01:24;;;;;;;10.50;6.50;;;-6.80;99.90;;;;;;4919992;29;20195;-85
2024/01/09 05:03:50;;;;;;;9.67;6.73;;;-6.80;99.90;;;;;;4918636;29;20238;-85
2024/01/09 05:06:19;;;;;;;13.97;6.90;;;-6.90;99.90;;;;;;4918557;29;20178;-85
2024/01/09 05:08:46;;;;;;;10.37;7.03;;;-7.00;99.90;;;;;;4918639;29;20183;-85
2024/01/09 05:11:12;;;;;;;10.60;6.97;;;-7.00;99.90;;;;;;4918922;29;20187;-85
2024/01/09 05:13:37;;;;;;;10.20;6.87;;;-7.10;99.90;;;;;;4919192;29;20187;-85
2024/01/09 05:16:04;;;;;;;11.17;6.63;;;-7.10;99.90;;;;;;4919129;29;20175;-85
2024/01/09 05:18:32;;;;;;;10.83;6.73;;;-7.20;99.90;;;;;;4918775;29;20207;-85
2024/01/09 05:20:58;;;;;;;11.67;7.30;;;-7.20;99.90;;;;;;4919306;29;20210;-85
2024/01/09 05:23:24;;;;;;;12.70;7.60;;;-7.30;99.90;;;;;;4918281;29;20186;-85
2024/01/09 05:25:49;;;;;;;11.77;8.03;;;-7.30;99.90;;;;;;4918347;29;20182;-86
2024/01/09 05:28:15;;;;;;;11.10;7.47;;;-7.30;99.90;;;;;;4918329;29;20246;-86
2024/01/09 05:30:42;;;;;;;10.30;7.30;;;-7.30;99.90;;;;;;4918145;29;20179;-84
2024/01/09 05:33:07;;;;;;;12.43;7.53;;;-7.30;99.90;;;;;;4918319;29;20179;-86
2024/01/09 05:35:33;;;;;;;13.03;7.77;;;-7.30;99.90;;;;;;4918501;29;20212;-85
2024/01/09 05:37:58;;;;;;;12.97;7.93;;;-7.40;99.90;;;;;;4918700;29;20198;-84
2024/01/09 05:40:24;;;;;;;15.83;10.23;;;-7.40;99.90;;;;;;4919656;29;20254;-84
2024/01/09 05:42:49;;;;;;;21.13;12.97;;;-7.40;99.90;;;;;;4934587;29;20222;-84
2024/01/09 05:45:15;;;;;;;16.57;10.00;;;-7.30;99.90;;;;;;4918216;29;20202;-84
2024/01/09 05:47:41;;;;;;;14.13;8.30;;;-7.30;99.90;;;;;;4918151;29;20199;-84
2024/01/09 05:50:08;;;;;;;10.80;7.03;;;-7.20;99.90;;;;;;4918482;29;20183;-84
2024/01/09 05:52:37;;;;;;;9.83;6.67;;;-7.10;99.90;;;;;;4918267;29;20210;-85
2024/01/09 05:55:04;;;;;;;11.63;7.43;;;-7.10;99.90;;;;;;4918523;29;20186;-85
2024/01/09 05:57:30;;;;;;;14.67;8.80;;;-7.00;99.90;;;;;;4917684;29;20207;-85
2024/01/09 05:59:55;;;;;;;25.40;14.27;;;-7.00;99.90;;;;;;4918200;29;20190;-85
2024/01/09 06:02:22;;;;;;;24.70;13.53;;;-7.10;99.90;;;;;;4918722;29;20207;-85
2024/01/09 06:04:48;;;;;;;15.77;9.50;;;-7.10;99.90;;;;;;4918795;29;20191;-85
2024/01/09 06:07:15;;;;;;;14.87;8.90;;;-7.20;99.90;;;;;;4918201;29;20203;-85
2024/01/09 06:09:41;;;;;;;12.73;7.87;;;-7.20;99.90;;;;;;4934700;29;20201;-85
2024/01/09 06:12:07;;;;;;;11.00;7.33;;;-7.20;99.90;;;;;;4918630;29;20183;-85
2024/01/09 06:14:32;;;;;;;13.93;7.93;;;-7.20;99.90;;;;;;4917521;29;20178;-85
2024/01/09 06:16:58;;;;;;;13.00;7.87;;;-7.20;99.90;;;;;;4917635;29;20310;-85
2024/01/09 06:19:24;;;;;;;10.30;7.43;;;-7.20;99.90;;;;;;4917736;29;20187;-85
2024/01/09 06:21:49;;;;;;;10.60;6.93;;;-7.10;99.90;;;;;;4917337;29;20218;-85
2024/01/09 06:24:15;;;;;;;12.50;7.37;;;-7.10;99.90;;;;;;4917665;29;20217;-86
2024/01/09 06:26:40;;;;;;;12.77;7.30;;;-7.00;99.90;;;;;;4917713;29;20287;-87
2024/01/09 06:29:07;;;;;;;13.63;7.00;;;-6.90;99.90;;;;;;4917083;29;20179;-85
2024/01/09 06:31:33;;;;;;;11.40;7.00;;;-6.80;99.90;;;;;;4918402;29;20693;-85
2024/01/09 06:33:58;;;;;;;15.53;7.33;;;-6.80;99.90;;;;;;4933021;29;20183;-85
2024/01/09 06:36:24;;;;;;;9.80;6.60;;;-6.70;99.90;;;;;;4917372;29;20194;-86
2024/01/09 06:38:49;;;;;;;11.27;7.27;;;-6.80;99.90;;;;;;4917056;29;20253;-86
2024/01/09 06:41:15;;;;;;;12.13;7.23;;;-6.80;99.90;;;;;;4916943;29;20229;-86
2024/01/09 06:43:40;;;;;;;11.27;7.00;;;-6.80;99.90;;;;;;4932657;29;20194;-86
2024/01/09 06:46:06;;;;;;;9.73;6.57;;;-6.70;99.90;;;;;;4916203;29;20636;-86
2024/01/09 06:48:32;;;;;;;11.43;7.00;;;-6.70;99.90;;;;;;4916574;29;20203;-86
2024/01/09 06:50:57;;;;;;;13.07;7.23;;;-6.60;99.90;;;;;;4917148;29;20194;-86
2024/01/09 06:53:24;;;;;;;11.50;7.27;;;-6.70;99.90;;;;;;4917584;29;20206;-86
2024/01/09 06:55:49;;;;;;;11.77;6.93;;;-6.70;99.80;;;;;;4932606;29;20239;-86
2024/01/09 06:58:16;;;;;;;12.90;7.47;;;-6.60;99.50;;;;;;4916822;29;20207;-86
2024/01/09 07:00:43;;;;;;;10.97;7.03;;;-6.60;99.90;;;;;;4916363;29;20186;-86
2024/01/09 07:03:08;;;;;;;12.07;8.97;;;-6.60;99.50;;;;;;4916578;29;20180;-86
2024/01/09 07:05:34;;;;;;;15.07;10.17;;;-6.60;99.50;;;;;;4916561;29;20190;-85
2024/01/09 07:08:00;;;;;;;14.23;9.13;;;-6.60;99.60;;;;;;4916559;29;20229;-85
2024/01/09 07:10:25;;;;;;;10.40;7.00;;;-6.70;99.70;;;;;;4916782;29;20179;-86
2024/01/09 07:12:51;;;;;;;13.27;6.80;;;-6.70;99.90;;;;;;4916505;29;20183;-86
2024/01/09 07:15:16;;;;;;;11.87;7.33;;;-6.70;99.80;;;;;;4917911;29;20178;-86
2024/01/09 07:17:42;;;;;;;9.87;6.40;;;-6.70;99.90;;;;;;4916699;29;20230;-86
2024/01/09 07:20:08;;;;;;;13.60;9.10;;;-6.70;99.50;;;;;;4916509;29;20556;-86
2024/01/09 07:22:33;;;;;;;12.40;7.93;;;-6.70;99.80;;;;;;4916628;29;20212;-86
2024/01/09 07:24:59;;;;;;;12.30;7.43;;;-6.70;99.80;;;;;;4916339;29;20261;-86
2024/01/09 07:27:24;;;;;;;10.87;6.83;;;-6.70;99.80;;;;;;4916174;29;20202;-86
2024/01/09 07:29:50;;;;;;;9.10;6.83;;;-6.70;99.50;;;;;;4916516;29;20226;-86
2024/01/09 07:32:16;;;;;;;10.97;6.70;;;-6.70;99.00;;;;;;4916263;29;20190;-85
2024/01/09 07:34:42;;;;;;;11.83;6.80;;;-6.80;99.50;;;;;;4916146;29;20191;-85
2024/01/09 07:37:07;;;;;;;13.23;6.90;;;-6.80;99.50;;;;;;4931898;29;20207;-86
2024/01/09 07:39:33;;;;;;;9.57;6.70;;;-6.80;99.00;;;;;;4932680;29;20207;-86
2024/01/09 07:41:58;;;;;;;11.20;7.17;;;-6.80;99.40;;;;;;4915952;29;20625;-86
2024/01/09 07:44:24;;;;;;;9.30;6.57;;;-6.80;99.50;;;;;;4932127;29;20190;-86
2024/01/09 07:46:50;;;;;;;12.87;7.07;;;-6.80;99.80;;;;;;4916753;29;20214;-86
2024/01/09 07:49:15;;;;;;;9.03;6.47;;;-6.70;99.20;;;;;;4915960;29;20171;-86
2024/01/09 07:51:41;;;;;;;11.50;6.83;;;-6.60;99.00;;;;;;4915890;29;20211;-86
2024/01/09 07:54:06;;;;;;;10.77;6.97;;;-6.60;98.90;;;;;;4916224;29;20186;-86
2024/01/09 07:56:32;;;;;;;13.20;7.30;;;-6.60;98.60;;;;;;4915893;29;20205;-86
2024/01/09 07:58:57;;;;;;;11.57;6.70;;;-6.50;98.80;;;;;;4915923;29;20202;-86
2024/01/09 08:01:24;;;;;;;11.07;6.93;;;-6.40;98.60;;;;;;4932625;29;20257;-85
2024/01/09 08:03:50;;;;;;;10.03;6.57;;;-6.30;98.20;;;;;;4915867;29;20743;-85
2024/01/09 08:06:16;;;;;;;13.00;7.03;;;-6.20;98.10;;;;;;4916017;29;20203;-85
2024/01/09 08:08:42;;;;;;;10.83;6.70;;;-6.20;98.30;;;;;;4916273;29;20265;-85
2024/01/09 08:11:08;;;;;;;12.07;6.90;;;-6.10;98.30;;;;;;4916159;29;20202;-85
2024/01/09 08:13:35;;;;;;;12.63;7.70;;;-6.10;97.80;;;;;;4921050;29;20179;-85
2024/01/09 08:16:00;;;;;;;12.37;7.83;;;-6.00;97.80;;;;;;4919959;29;20193;-85
2024/01/09 08:18:26;;;;;;;12.50;8.30;;;-6.00;97.80;;;;;;4919793;29;20207;-85
2024/01/09 08:20:52;;;;;;;10.33;6.50;;;-5.90;97.70;;;;;;4919391;29;20266;-85
2024/01/09 08:23:21;;;;;;;9.67;6.70;;;-5.80;97.70;;;;;;4919587;29;20644;-85
2024/01/09 08:25:47;;;;;;;13.30;8.03;;;-5.80;97.60;;;;;;4919972;29;20183;-85
2024/01/09 08:28:13;;;;;;;11.77;6.80;;;-5.70;96.80;;;;;;4919721;29;20210;-85
2024/01/09 08:30:38;;;;;;;10.60;6.90;;;-5.60;96.90;;;;;;4919475;29;20186;-85
2024/01/09 08:33:04;;;;;;;10.43;7.20;;;-5.60;97.00;;;;;;4919287;29;20182;-85
2024/01/09 08:35:30;;;;;;;10.77;7.20;;;-5.50;97.10;;;;;;4919503;29;20206;-85
2024/01/09 08:37:56;;;;;;;11.83;7.00;;;-5.50;96.80;;;;;;4919303;29;20218;-85
2024/01/09 08:40:22;;;;;;;12.30;6.60;;;-5.40;96.70;;;;;;4919180;29;20187;-85
2024/01/09 08:42:47;;;;;;;12.43;7.87;;;-5.40;96.70;;;;;;4919992;29;20219;-85
2024/01/09 08:45:14;;;;;;;14.70;7.07;;;-5.30;96.40;;;;;;4935161;29;20255;-85
2024/01/09 08:47:41;;;;;;;11.53;7.27;;;-5.20;96.30;;;;;;4920461;29;20206;-85
2024/01/09 08:50:07;;;;;;;10.63;6.97;;;-5.20;96.00;;;;;;4919002;29;20191;-85
2024/01/09 08:52:34;;;;;;;12.30;7.10;;;-5.10;96.00;;;;;;4918907;29;20282;-85
2024/01/09 08:55:00;;;;;;;11.73;7.00;;;-5.10;96.00;;;;;;4918941;29;20222;-85
2024/01/09 08:57:25;;;;;;;11.70;7.50;;;-5.00;94.90;;;;;;4920108;29;20699;-85
2024/01/09 08:59:51;;;;;;;11.67;6.83;;;-4.90;95.30;;;;;;4934715;29;20277;-85
2024/01/09 09:02:17;;;;;;;12.33;7.37;;;-4.80;95.30;;;;;;4918687;29;20310;-85
2024/01/09 09:04:42;;;;;;;13.43;8.20;;;-4.80;94.70;;;;;;4918886;29;20183;-85
2024/01/09 09:07:08;;;;;;;11.97;7.80;;;-4.70;94.50;;;;;;4919429;29;20253;-85
2024/01/09 09:09:35;;;;;;;23.47;8.20;;;-4.70;94.20;;;;;;4918763;29;20660;-85
2024/01/09 09:12:02;;;;;;;35.20;8.80;;;-4.60;93.60;;;;;;4919387;29;20187;-85
2024/01/09 09:14:28;;;;;;;17.43;7.50;;;-4.60;93.90;;;;;;4919020;29;20194;-86
2024/01/09 09:16:53;;;;;;;26.27;7.73;;;-4.50;94.10;;;;;;4919207;29;20203;-85
2024/01/09 09:19:21;;;;;;;16.97;7.00;;;-4.50;94.10;;;;;;4919916;29;20178;-85
2024/01/09 09:21:46;;;;;;;12.50;7.63;;;-4.40;94.00;;;;;;4918464;29;20301;-86
2024/01/09 09:24:12;;;;;;;14.10;7.30;;;-4.40;93.90;;;;;;4917420;29;20348;-86
2024/01/09 09:26:38;;;;;;;14.43;7.27;;;-4.30;93.80;;;;;;4918203;29;20202;-87
2024/01/09 09:29:03;;;;;;;10.10;6.43;;;-4.30;93.40;;;;;;4918888;29;20186;-87
2024/01/09 09:31:29;;;;;;;10.90;6.37;;;-4.30;93.00;;;;;;4918571;29;20186;-87
2024/01/09 09:33:58;;;;;;;10.57;6.70;;;-4.20;93.20;;;;;;4918047;29;20190;-87
2024/01/09 09:36:23;;;;;;;10.13;6.70;;;-4.10;93.00;;;;;;4934654;29;20259;-87
2024/01/09 09:38:52;;;;;;;12.13;6.70;;;-4.10;92.90;;;;;;4933828;29;20187;-87
2024/01/09 09:41:20;;;;;;;12.77;6.90;;;-4.00;92.50;;;;;;4918001;29;20250;-86
2024/01/09 09:43:54;;;;;;;8.87;6.30;;;-3.80;92.60;;;;;;4919207;29;20250;-86
2024/01/09 09:46:25;;;;;;;11.30;7.10;;;-3.80;92.30;;;;;;4934094;29;20184;-87
2024/01/09 09:48:55;;;;;;;11.53;6.60;;;-3.80;92.40;;;;;;4919215;29;20186;-87
2024/01/09 09:51:21;;;;;;;10.03;6.90;;;-3.70;92.00;;;;;;4917937;29;20182;-87
2024/01/09 09:53:47;;;;;;;9.77;6.10;;;-3.60;92.10;;;;;;4917906;29;20194;-87
2024/01/09 09:56:16;;;;;;;10.53;6.87;;;-3.50;91.50;;;;;;4918069;29;20182;-87
2024/01/09 09:58:42;;;;;;;11.13;6.60;;;-3.50;92.00;;;;;;4919122;29;20186;-87
2024/01/09 10:01:13;;;;;;;13.10;6.87;;;-3.40;91.20;;;;;;4918732;29;20217;-87
2024/01/09 10:03:49;;;;;;;13.70;8.23;;;-3.30;90.90;;;;;;4917686;29;20176;-87
2024/01/09 10:06:17;;;;;;;15.90;8.63;;;-3.20;90.10;;;;;;4933510;29;20175;-87
2024/01/09 10:08:46;;;;;;;15.93;9.33;;;-3.20;86.70;;;;;;4918832;29;20175;-87
2024/01/09 10:11:12;;;;;;;9.70;6.67;;;-3.10;87.70;;;;;;4917629;29;20191;-87
2024/01/09 10:13:39;;;;;;;9.00;5.73;;;-3.10;88.30;;;;;;4917621;29;20270;-87
2024/01/09 10:16:05;;;;;;;9.23;6.17;;;-3.00;86.30;;;;;;4917358;29;20194;-87
2024/01/09 10:18:31;;;;;;;9.57;6.37;;;-3.00;86.60;;;;;;4917532;29;20207;-87
2024/01/09 10:20:59;;;;;;;9.80;6.10;;;-2.90;87.20;;;;;;4917103;29;20199;-87
2024/01/09 10:23:26;;;;;;;10.20;6.13;;;-2.90;85.70;;;;;;4917678;29;20186;-87
2024/01/09 10:25:52;;;;;;;10.27;6.43;;;-2.80;85.30;;;;;;4917921;29;20175;-86
2024/01/09 10:28:18;;;;;;;11.10;6.33;;;-2.80;86.00;;;;;;4917164;29;20236;-86
2024/01/09 10:30:43;;;;;;;11.20;5.90;;;-2.70;86.10;;;;;;4917194;29;20278;-86
2024/01/09 10:33:11;;;;;;;11.10;6.47;;;-2.60;84.00;;;;;;4917969;29;20185;-85
2024/01/09 10:35:37;;;;;;;10.23;6.67;;;-2.60;85.20;;;;;;4916691;29;20247;-85
2024/01/09 10:38:03;;;;;;;12.77;7.13;;;-2.50;85.20;;;;;;4917040;29;20211;-85
2024/01/09 10:40:29;;;;;;;9.33;6.43;;;-2.50;84.00;;;;;;4917003;29;20187;-85
2024/01/09 10:42:55;;;;;;;9.70;6.53;;;-2.40;83.80;;;;;;4917242;29;20207;-85
2024/01/09 10:45:24;;;;;;;9.90;7.03;;;-2.40;81.70;;;;;;4932696;29;20202;-85
2024/01/09 10:47:56;;;;;;;10.23;6.80;;;-2.30;81.70;;;;;;4916780;29;20338;-85
2024/01/09 10:50:22;;;;;;;8.47;6.10;;;-2.30;82.20;;;;;;4916835;29;20270;-85
2024/01/09 10:52:48;;;;;;;8.43;5.77;;;-2.20;81.40;;;;;;4917060;29;20186;-85
2024/01/09 10:55:16;;;;;;;8.77;5.90;;;-2.20;81.70;;;;;;4916738;29;20304;-85
2024/01/09 10:57:42;;;;;;;8.73;6.07;;;-2.10;79.80;;;;;;4916509;29;20214;-85
2024/01/09 11:00:11;;;;;;;9.07;5.57;;;-2.10;80.10;;;;;;4916649;29;20194;-85
2024/01/09 11:02:37;;;;;;;8.17;5.57;;;-2.00;79.40;;;;;;4916759;29;20321;-85
2024/01/09 11:05:08;;;;;;;7.53;5.67;;;-1.90;78.60;;;;;;4916619;29;20206;-85
2024/01/09 11:07:34;;;;;;;7.83;5.47;;;-1.90;78.60;;;;;;4917739;29;20199;-86
2024/01/09 11:10:00;;;;;;;7.97;5.70;;;-1.80;79.40;;;;;;4932525;29;20240;-86
2024/01/09 11:12:40;;;;;;;10.53;6.07;;;-1.80;80.80;;;;;;4916570;29;20187;-86
2024/01/09 11:15:30;;;;;;;9.37;6.33;;;-1.80;80.20;;;;;;4916555;29;20195;-86
2024/01/09 11:18:04;;;;;;;8.93;5.20;;;-1.70;81.50;;;;;;4917634;29;20207;-86
2024/01/09 11:20:30;;;;;;;8.57;5.67;;;-1.60;81.10;;;;;;4916887;29;20186;-86
2024/01/09 11:22:56;;;;;;;8.80;5.87;;;-1.60;81.90;;;;;;4916614;29;20306;-86
2024/01/09 11:25:28;;;;;;;7.23;5.30;;;-1.60;80.70;;;;;;4916447;29;20187;-86
2024/01/09 11:27:54;;;;;;;7.10;5.30;;;-1.50;80.80;;;;;;4916205;29;20210;-86
2024/01/09 11:30:28;;;;;;;7.83;5.03;;;-1.50;80.80;;;;;;4917462;29;20183;-86
2024/01/09 11:33:17;;;;;;;7.47;4.43;;;-1.40;78.60;;;;;;4916351;29;20179;-86
2024/01/09 11:35:43;;;;;;;6.47;5.00;;;-1.30;76.90;;;;;;4915711;29;20183;-86
2024/01/09 11:38:09;;;;;;;8.47;4.60;;;-1.20;77.20;;;;;;4916388;29;20231;-86
2024/01/09 11:40:35;;;;;;;7.50;4.83;;;-1.10;76.40;;;;;;4917571;29;20190;-86
2024/01/09 11:43:01;;;;;;;8.10;5.13;;;-1.00;70.50;;;;;;4916008;29;20706;-86
2024/01/09 11:45:27;;;;;;;7.27;5.23;;;-0.90;71.30;;;;;;4931748;29;20187;-86
2024/01/09 11:47:53;;;;;;;6.53;4.20;;;-0.90;74.40;;;;;;4915622;29;20234;-86
2024/01/09 11:50:20;;;;;;;8.43;5.17;;;-0.80;74.10;;;;;;4916462;29;20191;-86
2024/01/09 11:52:47;;;;;;;6.80;4.63;;;-0.80;74.80;;;;;;4916202;29;20187;-85
2024/01/09 11:55:14;;;;;;;5.77;4.30;;;-0.80;73.30;;;;;;4915939;29;20187;-85
2024/01/09 11:57:42;;;;;;;7.93;4.30;;;-0.80;73.70;;;;;;4915920;29;20203;-85
2024/01/09 12:00:10;;;;;;;6.57;4.30;;;-0.80;72.60;;;;;;4916252;29;20204;-85
2024/01/09 12:02:36;;;;;;;5.00;3.67;;;-0.70;73.30;;;;;;4916285;29;20211;-87
2024/01/09 12:05:03;;;;;;;6.43;4.37;;;-0.70;72.40;;;;;;4915853;29;20186;-87
2024/01/09 12:07:31;;;;;;;5.93;4.00;;;-0.70;72.30;;;;;;4916047;29;20250;-87
2024/01/09 12:09:56;;;;;;;6.03;4.00;;;-0.60;71.40;;;;;;4915850;29;20175;-87
2024/01/09 12:12:25;;;;;;;5.77;4.07;;;-0.50;71.20;;;;;;4916682;29;20189;-87
2024/01/09 12:14:52;;;;;;;4.43;3.60;;;-0.60;69.60;;;;;;4915674;29;20187;-87
2024/01/09 12:17:23;;;;;;;6.07;4.17;;;-0.60;70.70;;;;;;4915697;29;20207;-87
2024/01/09 12:19:52;;;;;;;5.87;4.67;;;-0.50;69.90;;;;;;4916693;29;20183;-87
2024/01/09 12:22:19;;;;;;;5.67;4.23;;;-0.50;69.40;;;;;;4916065;29;20238;-87
2024/01/09 12:24:46;;;;;;;5.77;4.07;;;-0.50;69.70;;;;;;4915725;29;20175;-87
2024/01/09 12:27:12;;;;;;;5.40;3.90;;;-0.50;69.20;;;;;;4915558;29;20294;-87
2024/01/09 12:29:40;;;;;;;6.70;4.03;;;-0.50;69.20;;;;;;4915741;29;20263;-87
2024/01/09 12:32:06;;;;;;;6.80;4.50;;;-0.40;67.90;;;;;;4916404;29;20183;-87
2024/01/09 12:34:32;;;;;;;7.67;4.60;;;-0.40;68.10;;;;;;4915927;29;20258;-87
2024/01/09 12:37:00;;;;;;;5.23;3.80;;;-0.40;68.20;;;;;;4915959;29;20209;-87
2024/01/09 12:39:26;;;;;;;10.03;4.30;;;-0.40;67.40;;;;;;4915752;29;20183;-87
2024/01/09 12:42:07;;;;;;;5.77;4.47;;;-0.40;66.80;;;;;;4916179;29;20258;-86
2024/01/09 12:44:33;;;;;;;6.00;4.10;;;-0.40;67.00;;;;;;4916266;29;20171;-86
2024/01/09 12:47:00;;;;;;;7.97;4.73;;;-0.30;64.90;;;;;;4915880;29;20210;-86
2024/01/09 12:49:26;;;;;;;6.37;4.87;;;-0.20;65.70;;;;;;4915577;29;20183;-86
2024/01/09 12:51:56;;;;;;;6.27;4.43;;;-0.20;65.80;;;;;;4915498;29;20329;-86
2024/01/09 12:54:22;;;;;;;6.00;4.10;;;-0.10;64.40;;;;;;4931423;29;20179;-86
2024/01/09 12:56:48;;;;;;;7.67;4.90;;;-0.20;65.00;;;;;;4915444;29;20597;-86
2024/01/09 12:59:21;;;;;;;7.73;4.40;;;-0.20;65.90;;;;;;4919016;29;20303;-86
2024/01/09 13:01:47;;;;;;;5.33;4.03;;;-0.20;66.20;;;;;;4918923;29;20211;-86